Moose Creek, Minnesota
Current Conditions -  °F | °C
As of 1:53 AM on Wednesday 22 Oct 2014 (Local Time) from KBJI Reporting Station
Clear Clear  
Wind Chill: 40°   Ceiling: Unl
Heat Index: 46°   Visibility: 10mi
Dew Point: 38°   Wind: 15mph
Humidity: 75%   Direction: 150°SSE
Pressure: 30.02"   Gusts: NA
Location:  47.4609°N, 95.2384°W
Report Text: KBJI 220653Z AUTO 15013KT 10SM CLR 08/04 A3002 RMK AO2 T00780036
Loading
Personal Weather Stations






























Interactive Weather Map
Tropical Storm Tracking
New forecast layout! Learn more

10-Day Weather Forecast

Advertisements
Track Severe Weather on mobile